sensor_id;sensor_type;location;lat;lon;timestamp;temperature;humidity
69359;HTU21D;56520;49.066;8.660;2023-08-06T00:00:08;14.91;93.10
69359;HTU21D;56520;49.066;8.660;2023-08-06T00:02:34;14.92;93.09
69359;HTU21D;56520;49.066;8.660;2023-08-06T00:05:00;14.87;93.05
69359;HTU21D;56520;49.066;8.660;2023-08-06T00:07:25;14.87;93.14
69359;HTU21D;56520;49.066;8.660;2023-08-06T00:09:50;14.88;93.23
69359;HTU21D;56520;49.066;8.660;2023-08-06T00:12:16;14.89;93.30
69359;HTU21D;56520;49.066;8.660;2023-08-06T00:14:41;14.88;93.38
69359;HTU21D;56520;49.066;8.660;2023-08-06T00:17:07;14.91;93.43
69359;HTU21D;56520;49.066;8.660;2023-08-06T00:19:33;14.91;93.46
69359;HTU21D;56520;49.066;8.660;2023-08-06T00:21:58;14.91;93.49
69359;HTU21D;56520;49.066;8.660;2023-08-06T00:24:24;14.88;93.46
69359;HTU21D;56520;49.066;8.660;2023-08-06T00:26:49;14.88;93.51
69359;HTU21D;56520;49.066;8.660;2023-08-06T00:29:15;14.86;93.64
69359;HTU21D;56520;49.066;8.660;2023-08-06T00:31:40;14.86;93.73
69359;HTU21D;56520;49.066;8.660;2023-08-06T00:34:05;14.85;93.78
69359;HTU21D;56520;49.066;8.660;2023-08-06T00:36:31;14.83;93.95
69359;HTU21D;56520;49.066;8.660;2023-08-06T00:38:56;14.80;94.02
69359;HTU21D;56520;49.066;8.660;2023-08-06T00:41:22;14.78;94.03
69359;HTU21D;56520;49.066;8.660;2023-08-06T00:43:47;14.74;94.02
69359;HTU21D;56520;49.066;8.660;2023-08-06T00:46:13;14.70;93.75
69359;HTU21D;56520;49.066;8.660;2023-08-06T00:48:40;14.67;93.72
69359;HTU21D;56520;49.066;8.660;2023-08-06T00:51:06;14.65;93.64
69359;HTU21D;56520;49.066;8.660;2023-08-06T00:53:31;14.60;93.61
69359;HTU21D;56520;49.066;8.660;2023-08-06T00:55:57;14.56;93.56
69359;HTU21D;56520;49.066;8.660;2023-08-06T00:58:23;14.55;93.59
69359;HTU21D;56520;49.066;8.660;2023-08-06T01:00:49;14.52;93.52
69359;HTU21D;56520;49.066;8.660;2023-08-06T01:03:14;14.50;93.52
69359;HTU21D;56520;49.066;8.660;2023-08-06T01:05:40;14.48;93.55
69359;HTU21D;56520;49.066;8.660;2023-08-06T01:08:37;14.47;93.80
69359;HTU21D;56520;49.066;8.660;2023-08-06T01:13:46;14.45;94.13
69359;HTU21D;56520;49.066;8.660;2023-08-06T01:16:17;14.41;94.26
69359;HTU21D;56520;49.066;8.660;2023-08-06T01:18:43;14.38;94.28
69359;HTU21D;56520;49.066;8.660;2023-08-06T01:21:12;14.32;94.37
69359;HTU21D;56520;49.066;8.660;2023-08-06T01:23:38;14.30;94.37
69359;HTU21D;56520;49.066;8.660;2023-08-06T01:26:24;14.28;94.52
69359;HTU21D;56520;49.066;8.660;2023-08-06T01:29:01;14.25;94.58
69359;HTU21D;56520;49.066;8.660;2023-08-06T01:31:41;14.24;94.59
69359;HTU21D;56520;49.066;8.660;2023-08-06T01:34:17;14.24;94.48
69359;HTU21D;56520;49.066;8.660;2023-08-06T01:36:43;14.25;94.46
69359;HTU21D;56520;49.066;8.660;2023-08-06T01:39:09;14.27;94.47
69359;HTU21D;56520;49.066;8.660;2023-08-06T01:41:34;14.27;94.41
69359;HTU21D;56520;49.066;8.660;2023-08-06T01:44:00;14.25;94.34
69359;HTU21D;56520;49.066;8.660;2023-08-06T01:46:25;14.23;94.37
69359;HTU21D;56520;49.066;8.660;2023-08-06T01:48:50;14.21;94.54
69359;HTU21D;56520;49.066;8.660;2023-08-06T01:51:16;14.22;94.46
69359;HTU21D;56520;49.066;8.660;2023-08-06T01:53:41;14.23;94.41
69359;HTU21D;56520;49.066;8.660;2023-08-06T01:56:07;14.27;94.44
69359;HTU21D;56520;49.066;8.660;2023-08-06T01:58:32;14.28;94.34
69359;HTU21D;56520;49.066;8.660;2023-08-06T02:00:57;14.27;94.32
69359;HTU21D;56520;49.066;8.660;2023-08-06T02:03:23;14.30;94.30
69359;HTU21D;56520;49.066;8.660;2023-08-06T02:05:48;14.32;94.27
69359;HTU21D;56520;49.066;8.660;2023-08-06T02:08:14;14.35;94.30
69359;HTU21D;56520;49.066;8.660;2023-08-06T02:10:39;14.36;94.25
69359;HTU21D;56520;49.066;8.660;2023-08-06T02:13:05;14.38;94.27
69359;HTU21D;56520;49.066;8.660;2023-08-06T02:15:30;14.40;94.27
69359;HTU21D;56520;49.066;8.660;2023-08-06T02:17:55;14.41;94.31
69359;HTU21D;56520;49.066;8.660;2023-08-06T02:20:21;14.44;94.31
69359;HTU21D;56520;49.066;8.660;2023-08-06T02:22:46;14.43;94.30
69359;HTU21D;56520;49.066;8.660;2023-08-06T02:25:12;14.44;94.27
69359;HTU21D;56520;49.066;8.660;2023-08-06T02:27:37;14.45;94.20
69359;HTU21D;56520;49.066;8.660;2023-08-06T02:30:04;14.45;94.18
69359;HTU21D;56520;49.066;8.660;2023-08-06T02:32:30;14.43;94.18
69359;HTU21D;56520;49.066;8.660;2023-08-06T02:34:59;14.41;94.30
69359;HTU21D;56520;49.066;8.660;2023-08-06T02:37:25;14.39;94.33
69359;HTU21D;56520;49.066;8.660;2023-08-06T02:39:50;14.39;94.30
69359;HTU21D;56520;49.066;8.660;2023-08-06T02:42:16;14.39;94.31
69359;HTU21D;56520;49.066;8.660;2023-08-06T02:44:41;14.39;94.29
69359;HTU21D;56520;49.066;8.660;2023-08-06T02:47:09;14.41;94.29
69359;HTU21D;56520;49.066;8.660;2023-08-06T02:49:35;14.41;94.36
69359;HTU21D;56520;49.066;8.660;2023-08-06T02:52:00;14.44;94.46
69359;HTU21D;56520;49.066;8.660;2023-08-06T02:54:25;14.48;94.51
69359;HTU21D;56520;49.066;8.660;2023-08-06T02:56:51;14.48;94.55
69359;HTU21D;56520;49.066;8.660;2023-08-06T02:59:16;14.47;94.59
69359;HTU21D;56520;49.066;8.660;2023-08-06T03:01:42;14.45;94.35
69359;HTU21D;56520;49.066;8.660;2023-08-06T03:04:07;14.47;94.09
69359;HTU21D;56520;49.066;8.660;2023-08-06T03:06:32;14.53;93.43
69359;HTU21D;56520;49.066;8.660;2023-08-06T03:08:58;14.83;90.22
69359;HTU21D;56520;49.066;8.660;2023-08-06T03:11:23;14.99;89.86
69359;HTU21D;56520;49.066;8.660;2023-08-06T03:13:49;15.10;89.44
69359;HTU21D;56520;49.066;8.660;2023-08-06T03:16:14;15.09;89.17
69359;HTU21D;56520;49.066;8.660;2023-08-06T03:18:40;15.09;89.35
69359;HTU21D;56520;49.066;8.660;2023-08-06T03:21:06;15.08;89.60
69359;HTU21D;56520;49.066;8.660;2023-08-06T03:23:31;15.03;89.92
69359;HTU21D;56520;49.066;8.660;2023-08-06T03:26:01;15.00;90.24
69359;HTU21D;56520;49.066;8.660;2023-08-06T03:28:27;15.00;89.84
69359;HTU21D;56520;49.066;8.660;2023-08-06T03:31:02;15.04;89.68
69359;HTU21D;56520;49.066;8.660;2023-08-06T03:33:28;15.01;89.84
69359;HTU21D;56520;49.066;8.660;2023-08-06T03:35:54;15.06;89.54
69359;HTU21D;56520;49.066;8.660;2023-08-06T03:38:19;15.10;88.85
69359;HTU21D;56520;49.066;8.660;2023-08-06T03:40:46;15.07;88.62
69359;HTU21D;56520;49.066;8.660;2023-08-06T03:43:11;15.13;86.88
69359;HTU21D;56520;49.066;8.660;2023-08-06T03:45:37;15.06;87.36
69359;HTU21D;56520;49.066;8.660;2023-08-06T03:48:02;14.98;88.25
69359;HTU21D;56520;49.066;8.660;2023-08-06T03:50:28;15.03;87.44
69359;HTU21D;56520;49.066;8.660;2023-08-06T03:52:53;15.02;87.18
69359;HTU21D;56520;49.066;8.660;2023-08-06T03:55:19;14.95;88.22
69359;HTU21D;56520;49.066;8.660;2023-08-06T03:57:44;14.86;88.52
69359;HTU21D;56520;49.066;8.660;2023-08-06T04:00:10;14.88;87.97
69359;HTU21D;56520;49.066;8.660;2023-08-06T04:02:35;14.92;87.74
69359;HTU21D;56520;49.066;8.660;2023-08-06T04:05:01;14.91;86.66
69359;HTU21D;56520;49.066;8.660;2023-08-06T04:07:26;14.85;87.62
69359;HTU21D;56520;49.066;8.660;2023-08-06T04:10:02;14.83;87.56
69359;HTU21D;56520;49.066;8.660;2023-08-06T04:12:31;14.80;88.08
69359;HTU21D;56520;49.066;8.660;2023-08-06T04:14:58;14.74;88.41
69359;HTU21D;56520;49.066;8.660;2023-08-06T04:17:24;14.86;87.57
69359;HTU21D;56520;49.066;8.660;2023-08-06T04:19:53;14.81;87.61
69359;HTU21D;56520;49.066;8.660;2023-08-06T04:22:20;14.83;87.31
69359;HTU21D;56520;49.066;8.660;2023-08-06T04:24:46;14.67;88.77
69359;HTU21D;56520;49.066;8.660;2023-08-06T04:27:13;14.57;89.79
69359;HTU21D;56520;49.066;8.660;2023-08-06T04:29:38;14.48;89.80
69359;HTU21D;56520;49.066;8.660;2023-08-06T04:32:06;14.39;90.61
69359;HTU21D;56520;49.066;8.660;2023-08-06T04:34:32;14.35;90.69
69359;HTU21D;56520;49.066;8.660;2023-08-06T04:39:23;14.35;90.31
69359;HTU21D;56520;49.066;8.660;2023-08-06T04:41:48;14.33;90.68
69359;HTU21D;56520;49.066;8.660;2023-08-06T04:44:14;14.33;91.13
69359;HTU21D;56520;49.066;8.660;2023-08-06T04:46:42;14.35;90.28
69359;HTU21D;56520;49.066;8.660;2023-08-06T04:49:07;14.39;89.63
69359;HTU21D;56520;49.066;8.660;2023-08-06T04:51:33;14.37;89.93
69359;HTU21D;56520;49.066;8.660;2023-08-06T04:53:58;14.44;89.16
69359;HTU21D;56520;49.066;8.660;2023-08-06T04:56:24;14.42;89.52
69359;HTU21D;56520;49.066;8.660;2023-08-06T04:58:50;14.48;89.03
69359;HTU21D;56520;49.066;8.660;2023-08-06T05:01:15;14.42;89.72
69359;HTU21D;56520;49.066;8.660;2023-08-06T05:03:40;14.47;89.32
69359;HTU21D;56520;49.066;8.660;2023-08-06T05:06:06;14.56;88.70
69359;HTU21D;56520;49.066;8.660;2023-08-06T05:08:31;14.51;89.02
69359;HTU21D;56520;49.066;8.660;2023-08-06T05:10:59;14.50;89.06
69359;HTU21D;56520;49.066;8.660;2023-08-06T05:13:25;14.51;89.21
69359;HTU21D;56520;49.066;8.660;2023-08-06T05:15:52;14.48;89.38
69359;HTU21D;56520;49.066;8.660;2023-08-06T05:18:18;14.49;89.51
69359;HTU21D;56520;49.066;8.660;2023-08-06T05:20:43;14.52;89.82
69359;HTU21D;56520;49.066;8.660;2023-08-06T05:23:09;14.59;89.21
69359;HTU21D;56520;49.066;8.660;2023-08-06T05:25:35;14.58;88.81
69359;HTU21D;56520;49.066;8.660;2023-08-06T05:28:01;14.62;88.93
69359;HTU21D;56520;49.066;8.660;2023-08-06T05:30:27;14.58;89.49
69359;HTU21D;56520;49.066;8.660;2023-08-06T05:32:52;14.62;89.66
69359;HTU21D;56520;49.066;8.660;2023-08-06T05:35:18;14.68;89.74
69359;HTU21D;56520;49.066;8.660;2023-08-06T05:37:43;14.78;89.01
69359;HTU21D;56520;49.066;8.660;2023-08-06T05:40:09;14.85;88.77
69359;HTU21D;56520;49.066;8.660;2023-08-06T05:42:34;14.91;88.38
69359;HTU21D;56520;49.066;8.660;2023-08-06T05:45:00;14.88;88.79
69359;HTU21D;56520;49.066;8.660;2023-08-06T05:47:25;14.92;88.21
69359;HTU21D;56520;49.066;8.660;2023-08-06T05:49:50;14.85;89.19
69359;HTU21D;56520;49.066;8.660;2023-08-06T05:52:16;14.82;89.11
69359;HTU21D;56520;49.066;8.660;2023-08-06T05:54:41;14.80;89.20
69359;HTU21D;56520;49.066;8.660;2023-08-06T05:57:07;14.84;88.70
69359;HTU21D;56520;49.066;8.660;2023-08-06T05:59:32;14.85;88.60
69359;HTU21D;56520;49.066;8.660;2023-08-06T06:01:57;14.87;88.22
69359;HTU21D;56520;49.066;8.660;2023-08-06T06:04:23;14.84;88.92
69359;HTU21D;56520;49.066;8.660;2023-08-06T06:06:48;14.80;88.51
69359;HTU21D;56520;49.066;8.660;2023-08-06T06:09:14;14.84;88.62
69359;HTU21D;56520;49.066;8.660;2023-08-06T06:11:39;14.80;88.46
69359;HTU21D;56520;49.066;8.660;2023-08-06T06:14:04;14.70;89.30
69359;HTU21D;56520;49.066;8.660;2023-08-06T06:16:30;14.72;88.41
69359;HTU21D;56520;49.066;8.660;2023-08-06T06:18:55;14.67;89.57
69359;HTU21D;56520;49.066;8.660;2023-08-06T06:21:23;14.62;89.54
69359;HTU21D;56520;49.066;8.660;2023-08-06T06:23:48;14.64;89.76
69359;HTU21D;56520;49.066;8.660;2023-08-06T06:26:13;14.75;88.70
69359;HTU21D;56520;49.066;8.660;2023-08-06T06:28:39;14.69;89.18
69359;HTU21D;56520;49.066;8.660;2023-08-06T06:31:04;14.74;88.13
69359;HTU21D;56520;49.066;8.660;2023-08-06T06:33:30;14.66;88.60
69359;HTU21D;56520;49.066;8.660;2023-08-06T06:35:55;14.74;87.54
69359;HTU21D;56520;49.066;8.660;2023-08-06T06:38:20;14.83;86.54
69359;HTU21D;56520;49.066;8.660;2023-08-06T06:40:56;14.74;87.75
69359;HTU21D;56520;49.066;8.660;2023-08-06T06:43:23;14.82;86.09
69359;HTU21D;56520;49.066;8.660;2023-08-06T06:45:57;14.73;86.95
69359;HTU21D;56520;49.066;8.660;2023-08-06T06:48:24;14.68;87.52
69359;HTU21D;56520;49.066;8.660;2023-08-06T06:50:49;14.77;87.12
69359;HTU21D;56520;49.066;8.660;2023-08-06T06:53:15;14.78;87.19
69359;HTU21D;56520;49.066;8.660;2023-08-06T06:55:40;14.75;86.96
69359;HTU21D;56520;49.066;8.660;2023-08-06T06:58:06;14.75;87.54
69359;HTU21D;56520;49.066;8.660;2023-08-06T07:00:31;14.82;87.41
69359;HTU21D;56520;49.066;8.660;2023-08-06T07:02:57;14.80;87.84
69359;HTU21D;56520;49.066;8.660;2023-08-06T07:05:22;14.83;87.44
69359;HTU21D;56520;49.066;8.660;2023-08-06T07:07:47;14.84;87.93
69359;HTU21D;56520;49.066;8.660;2023-08-06T07:10:13;14.81;88.37
69359;HTU21D;56520;49.066;8.660;2023-08-06T07:12:38;14.92;88.28
69359;HTU21D;56520;49.066;8.660;2023-08-06T07:15:06;15.06;86.70
69359;HTU21D;56520;49.066;8.660;2023-08-06T07:17:31;14.97;87.25
69359;HTU21D;56520;49.066;8.660;2023-08-06T07:19:57;14.94;87.98
69359;HTU21D;56520;49.066;8.660;2023-08-06T07:22:22;15.07;86.64
69359;HTU21D;56520;49.066;8.660;2023-08-06T07:24:47;15.15;86.74
69359;HTU21D;56520;49.066;8.660;2023-08-06T07:27:13;15.25;86.70
69359;HTU21D;56520;49.066;8.660;2023-08-06T07:29:38;15.36;85.09
69359;HTU21D;56520;49.066;8.660;2023-08-06T07:32:05;15.49;84.64
69359;HTU21D;56520;49.066;8.660;2023-08-06T07:34:31;15.47;84.55
69359;HTU21D;56520;49.066;8.660;2023-08-06T07:36:57;15.42;84.60
69359;HTU21D;56520;49.066;8.660;2023-08-06T07:39:22;15.42;84.55
69359;HTU21D;56520;49.066;8.660;2023-08-06T07:41:48;15.44;85.06
69359;HTU21D;56520;49.066;8.660;2023-08-06T07:44:14;15.44;85.16
69359;HTU21D;56520;49.066;8.660;2023-08-06T07:46:40;15.48;84.29
69359;HTU21D;56520;49.066;8.660;2023-08-06T07:49:05;15.53;84.28
69359;HTU21D;56520;49.066;8.660;2023-08-06T07:51:31;15.51;84.42
69359;HTU21D;56520;49.066;8.660;2023-08-06T07:53:56;15.60;83.58
69359;HTU21D;56520;49.066;8.660;2023-08-06T07:56:21;15.57;84.08
69359;HTU21D;56520;49.066;8.660;2023-08-06T07:58:47;15.61;84.38
69359;HTU21D;56520;49.066;8.660;2023-08-06T08:01:14;15.78;83.21
69359;HTU21D;56520;49.066;8.660;2023-08-06T08:03:40;16.05;81.63
69359;HTU21D;56520;49.066;8.660;2023-08-06T08:06:05;16.01;82.40
69359;HTU21D;56520;49.066;8.660;2023-08-06T08:08:30;16.10;82.46
69359;HTU21D;56520;49.066;8.660;2023-08-06T08:10:56;16.15;81.91
69359;HTU21D;56520;49.066;8.660;2023-08-06T08:13:21;16.08;82.08
69359;HTU21D;56520;49.066;8.660;2023-08-06T08:15:46;16.04;82.43
69359;HTU21D;56520;49.066;8.660;2023-08-06T08:18:12;16.06;83.80
69359;HTU21D;56520;49.066;8.660;2023-08-06T08:20:37;15.99;83.79
69359;HTU21D;56520;49.066;8.660;2023-08-06T08:23:03;15.87;85.22
69359;HTU21D;56520;49.066;8.660;2023-08-06T08:25:28;16.05;84.73
69359;HTU21D;56520;49.066;8.660;2023-08-06T08:27:54;15.91;85.39
69359;HTU21D;56520;49.066;8.660;2023-08-06T08:30:21;15.69;86.74
69359;HTU21D;56520;49.066;8.660;2023-08-06T08:32:47;15.58;88.07
69359;HTU21D;56520;49.066;8.660;2023-08-06T08:35:12;15.54;88.14
69359;HTU21D;56520;49.066;8.660;2023-08-06T08:37:41;15.54;88.54
69359;HTU21D;56520;49.066;8.660;2023-08-06T08:40:07;15.63;89.45
69359;HTU21D;56520;49.066;8.660;2023-08-06T08:42:33;15.60;88.92
69359;HTU21D;56520;49.066;8.660;2023-08-06T08:44:59;15.54;88.38
69359;HTU21D;56520;49.066;8.660;2023-08-06T08:47:24;15.40;89.38
69359;HTU21D;56520;49.066;8.660;2023-08-06T08:49:54;15.40;89.60
69359;HTU21D;56520;49.066;8.660;2023-08-06T08:52:22;15.40;89.93
69359;HTU21D;56520;49.066;8.660;2023-08-06T08:54:49;15.39;89.42
69359;HTU21D;56520;49.066;8.660;2023-08-06T08:57:17;15.42;88.14
69359;HTU21D;56520;49.066;8.660;2023-08-06T08:59:42;15.32;88.94
69359;HTU21D;56520;49.066;8.660;2023-08-06T09:02:10;15.28;89.62
69359;HTU21D;56520;49.066;8.660;2023-08-06T09:04:37;15.28;89.95
69359;HTU21D;56520;49.066;8.660;2023-08-06T09:07:03;15.40;88.37
69359;HTU21D;56520;49.066;8.660;2023-08-06T09:09:33;15.41;89.28
69359;HTU21D;56520;49.066;8.660;2023-08-06T09:12:09;15.48;88.83
69359;HTU21D;56520;49.066;8.660;2023-08-06T09:14:36;15.44;88.96
69359;HTU21D;56520;49.066;8.660;2023-08-06T09:17:02;15.41;90.37
69359;HTU21D;56520;49.066;8.660;2023-08-06T09:19:27;15.56;89.75
69359;HTU21D;56520;49.066;8.660;2023-08-06T09:21:55;15.74;88.96
69359;HTU21D;56520;49.066;8.660;2023-08-06T09:24:20;15.89;89.57
69359;HTU21D;56520;49.066;8.660;2023-08-06T09:26:47;15.95;89.79
69359;HTU21D;56520;49.066;8.660;2023-08-06T09:29:12;16.03;89.17
69359;HTU21D;56520;49.066;8.660;2023-08-06T09:31:48;15.99;88.12
69359;HTU21D;56520;49.066;8.660;2023-08-06T09:34:21;16.14;88.53
69359;HTU21D;56520;49.066;8.660;2023-08-06T09:36:49;16.30;87.85
69359;HTU21D;56520;49.066;8.660;2023-08-06T09:39:20;16.35;86.06
69359;HTU21D;56520;49.066;8.660;2023-08-06T09:41:46;16.31;86.55
69359;HTU21D;56520;49.066;8.660;2023-08-06T09:46:42;16.49;85.98
69359;HTU21D;56520;49.066;8.660;2023-08-06T09:49:07;16.44;85.86
69359;HTU21D;56520;49.066;8.660;2023-08-06T09:51:34;16.35;86.56
69359;HTU21D;56520;49.066;8.660;2023-08-06T09:54:03;16.37;85.09
69359;HTU21D;56520;49.066;8.660;2023-08-06T09:56:29;16.30;84.76
69359;HTU21D;56520;49.066;8.660;2023-08-06T09:58:58;16.08;86.93
69359;HTU21D;56520;49.066;8.660;2023-08-06T10:01:25;16.05;86.25
69359;HTU21D;56520;49.066;8.660;2023-08-06T10:03:52;15.92;87.12
69359;HTU21D;56520;49.066;8.660;2023-08-06T10:06:20;15.84;88.35
69359;HTU21D;56520;49.066;8.660;2023-08-06T10:08:45;15.89;87.12
69359;HTU21D;56520;49.066;8.660;2023-08-06T10:11:11;15.77;87.75
69359;HTU21D;56520;49.066;8.660;2023-08-06T10:13:38;15.86;86.77
69359;HTU21D;56520;49.066;8.660;2023-08-06T10:16:04;15.78;87.25
69359;HTU21D;56520;49.066;8.660;2023-08-06T10:18:30;15.75;86.77
69359;HTU21D;56520;49.066;8.660;2023-08-06T10:20:56;15.68;88.23
69359;HTU21D;56520;49.066;8.660;2023-08-06T10:23:33;15.71;87.90
69359;HTU21D;56520;49.066;8.660;2023-08-06T10:25:58;15.72;88.60
69359;HTU21D;56520;49.066;8.660;2023-08-06T10:28:34;15.65;88.74
69359;HTU21D;56520;49.066;8.660;2023-08-06T10:31:00;15.78;89.26
69359;HTU21D;56520;49.066;8.660;2023-08-06T10:33:40;15.87;88.36
69359;HTU21D;56520;49.066;8.660;2023-08-06T10:36:08;15.75;88.71
69359;HTU21D;56520;49.066;8.660;2023-08-06T10:38:35;15.70;88.19
69359;HTU21D;56520;49.066;8.660;2023-08-06T10:41:03;15.62;87.79
69359;HTU21D;56520;49.066;8.660;2023-08-06T10:43:36;15.70;86.99
69359;HTU21D;56520;49.066;8.660;2023-08-06T10:46:10;15.62;87.70
69359;HTU21D;56520;49.066;8.660;2023-08-06T10:48:38;15.57;87.72
69359;HTU21D;56520;49.066;8.660;2023-08-06T10:51:09;15.49;88.11
69359;HTU21D;56520;49.066;8.660;2023-08-06T10:53:35;15.41;89.09
69359;HTU21D;56520;49.066;8.660;2023-08-06T10:56:01;15.41;88.60
69359;HTU21D;56520;49.066;8.660;2023-08-06T10:58:33;15.38;88.16
69359;HTU21D;56520;49.066;8.660;2023-08-06T11:00:59;15.32;88.03
69359;HTU21D;56520;49.066;8.660;2023-08-06T11:03:27;15.28;88.57
69359;HTU21D;56520;49.066;8.660;2023-08-06T11:05:52;15.23;89.23
69359;HTU21D;56520;49.066;8.660;2023-08-06T11:08:27;15.29;89.21
69359;HTU21D;56520;49.066;8.660;2023-08-06T11:10:53;15.33;88.35
69359;HTU21D;56520;49.066;8.660;2023-08-06T11:13:20;15.37;88.99
69359;HTU21D;56520;49.066;8.660;2023-08-06T11:15:45;15.33;89.00
69359;HTU21D;56520;49.066;8.660;2023-08-06T11:18:11;15.29;88.36
69359;HTU21D;56520;49.066;8.660;2023-08-06T11:20:37;15.13;90.13
69359;HTU21D;56520;49.066;8.660;2023-08-06T11:23:03;15.04;90.76
69359;HTU21D;56520;49.066;8.660;2023-08-06T11:25:29;14.98;90.44
69359;HTU21D;56520;49.066;8.660;2023-08-06T11:27:55;15.02;89.47
69359;HTU21D;56520;49.066;8.660;2023-08-06T11:30:20;14.92;89.86
69359;HTU21D;56520;49.066;8.660;2023-08-06T11:32:47;14.84;90.39
69359;HTU21D;56520;49.066;8.660;2023-08-06T11:35:13;14.74;90.50
69359;HTU21D;56520;49.066;8.660;2023-08-06T11:37:40;14.70;91.56
69359;HTU21D;56520;49.066;8.660;2023-08-06T11:40:09;14.70;89.87
69359;HTU21D;56520;49.066;8.660;2023-08-06T11:42:36;14.66;90.31
69359;HTU21D;56520;49.066;8.660;2023-08-06T11:45:03;14.59;90.18
69359;HTU21D;56520;49.066;8.660;2023-08-06T11:47:29;14.47;90.92
69359;HTU21D;56520;49.066;8.660;2023-08-06T11:49:55;14.50;91.53
69359;HTU21D;56520;49.066;8.660;2023-08-06T11:52:22;14.48;91.15
69359;HTU21D;56520;49.066;8.660;2023-08-06T11:55:08;14.50;91.21
69359;HTU21D;56520;49.066;8.660;2023-08-06T11:57:39;14.49;91.80
69359;HTU21D;56520;49.066;8.660;2023-08-06T12:00:12;14.49;91.91
69359;HTU21D;56520;49.066;8.660;2023-08-06T12:02:39;14.52;91.15
69359;HTU21D;56520;49.066;8.660;2023-08-06T12:05:14;14.63;90.28
69359;HTU21D;56520;49.066;8.660;2023-08-06T12:07:45;14.60;90.46
69359;HTU21D;56520;49.066;8.660;2023-08-06T12:10:14;14.55;91.24
69359;HTU21D;56520;49.066;8.660;2023-08-06T12:12:40;14.64;90.33
69359;HTU21D;56520;49.066;8.660;2023-08-06T12:15:07;14.72;89.15
69359;HTU21D;56520;49.066;8.660;2023-08-06T12:17:33;14.74;89.15
69359;HTU21D;56520;49.066;8.660;2023-08-06T12:19:59;14.75;88.87
69359;HTU21D;56520;49.066;8.660;2023-08-06T12:22:24;14.68;89.50
69359;HTU21D;56520;49.066;8.660;2023-08-06T12:24:49;14.64;89.41
69359;HTU21D;56520;49.066;8.660;2023-08-06T12:27:15;14.70;87.77
69359;HTU21D;56520;49.066;8.660;2023-08-06T12:29:48;14.77;87.25
69359;HTU21D;56520;49.066;8.660;2023-08-06T12:32:14;14.86;86.61
69359;HTU21D;56520;49.066;8.660;2023-08-06T12:34:41;14.88;86.95
69359;HTU21D;56520;49.066;8.660;2023-08-06T12:37:07;14.85;87.95
69359;HTU21D;56520;49.066;8.660;2023-08-06T12:39:33;14.85;88.45
69359;HTU21D;56520;49.066;8.660;2023-08-06T12:42:00;14.89;87.80
69359;HTU21D;56520;49.066;8.660;2023-08-06T12:44:26;14.97;87.92
69359;HTU21D;56520;49.066;8.660;2023-08-06T12:46:52;15.02;87.34
69359;HTU21D;56520;49.066;8.660;2023-08-06T12:49:18;14.97;87.58
69359;HTU21D;56520;49.066;8.660;2023-08-06T12:51:46;14.97;87.72
69359;HTU21D;56520;49.066;8.660;2023-08-06T12:54:11;14.95;87.28
69359;HTU21D;56520;49.066;8.660;2023-08-06T12:56:37;15.03;86.80
69359;HTU21D;56520;49.066;8.660;2023-08-06T12:59:02;15.10;86.22
69359;HTU21D;56520;49.066;8.660;2023-08-06T13:01:30;15.02;86.93
69359;HTU21D;56520;49.066;8.660;2023-08-06T13:03:57;14.98;87.48
69359;HTU21D;56520;49.066;8.660;2023-08-06T13:06:23;14.98;87.74
69359;HTU21D;56520;49.066;8.660;2023-08-06T13:08:48;14.94;87.96
69359;HTU21D;56520;49.066;8.660;2023-08-06T13:11:14;14.89;88.32
69359;HTU21D;56520;49.066;8.660;2023-08-06T13:13:39;14.86;89.04
69359;HTU21D;56520;49.066;8.660;2023-08-06T13:16:04;14.84;89.63
69359;HTU21D;56520;49.066;8.660;2023-08-06T13:18:30;14.91;88.22
69359;HTU21D;56520;49.066;8.660;2023-08-06T13:20:56;14.94;87.60
69359;HTU21D;56520;49.066;8.660;2023-08-06T13:23:21;14.89;88.67
69359;HTU21D;56520;49.066;8.660;2023-08-06T13:25:47;14.94;89.47
69359;HTU21D;56520;49.066;8.660;2023-08-06T13:28:12;15.01;88.76
69359;HTU21D;56520;49.066;8.660;2023-08-06T13:30:42;15.15;88.41
69359;HTU21D;56520;49.066;8.660;2023-08-06T13:33:08;15.24;88.02
69359;HTU21D;56520;49.066;8.660;2023-08-06T13:35:33;15.34;86.80
69359;HTU21D;56520;49.066;8.660;2023-08-06T13:37:59;15.49;84.99
69359;HTU21D;56520;49.066;8.660;2023-08-06T13:40:24;15.61;83.01
69359;HTU21D;56520;49.066;8.660;2023-08-06T13:42:50;15.49;84.03
69359;HTU21D;56520;49.066;8.660;2023-08-06T13:45:15;15.45;84.96
69359;HTU21D;56520;49.066;8.660;2023-08-06T13:47:41;15.41;85.18
69359;HTU21D;56520;49.066;8.660;2023-08-06T13:50:07;15.46;83.72
69359;HTU21D;56520;49.066;8.660;2023-08-06T13:52:33;15.48;81.76
69359;HTU21D;56520;49.066;8.660;2023-08-06T13:55:00;15.51;82.15
69359;HTU21D;56520;49.066;8.660;2023-08-06T13:57:25;15.48;82.81
69359;HTU21D;56520;49.066;8.660;2023-08-06T13:59:51;15.49;82.42
69359;HTU21D;56520;49.066;8.660;2023-08-06T14:02:16;15.47;82.00
69359;HTU21D;56520;49.066;8.660;2023-08-06T14:04:42;15.47;80.82
69359;HTU21D;56520;49.066;8.660;2023-08-06T14:07:07;15.44;81.91
69359;HTU21D;56520;49.066;8.660;2023-08-06T14:09:33;15.42;82.58
69359;HTU21D;56520;49.066;8.660;2023-08-06T14:12:00;15.39;83.08
69359;HTU21D;56520;49.066;8.660;2023-08-06T14:14:25;15.44;81.63
69359;HTU21D;56520;49.066;8.660;2023-08-06T14:16:54;15.46;81.72
69359;HTU21D;56520;49.066;8.660;2023-08-06T14:19:20;15.47;82.11
69359;HTU21D;56520;49.066;8.660;2023-08-06T14:21:45;15.51;82.84
69359;HTU21D;56520;49.066;8.660;2023-08-06T14:24:11;15.68;81.14
69359;HTU21D;56520;49.066;8.660;2023-08-06T14:26:36;15.75;80.37
69359;HTU21D;56520;49.066;8.660;2023-08-06T14:29:02;15.83;80.12
69359;HTU21D;56520;49.066;8.660;2023-08-06T14:31:28;15.87;79.47
69359;HTU21D;56520;49.066;8.660;2023-08-06T14:33:53;15.93;80.16
69359;HTU21D;56520;49.066;8.660;2023-08-06T14:36:19;16.07;78.32
69359;HTU21D;56520;49.066;8.660;2023-08-06T14:38:44;16.20;78.05
69359;HTU21D;56520;49.066;8.660;2023-08-06T14:41:09;16.26;76.92
69359;HTU21D;56520;49.066;8.660;2023-08-06T14:43:36;16.31;77.11
69359;HTU21D;56520;49.066;8.660;2023-08-06T14:46:01;16.36;74.63
69359;HTU21D;56520;49.066;8.660;2023-08-06T14:48:26;16.43;73.74
69359;HTU21D;56520;49.066;8.660;2023-08-06T14:50:53;16.42;73.20
69359;HTU21D;56520;49.066;8.660;2023-08-06T14:53:30;16.39;73.65
69359;HTU21D;56520;49.066;8.660;2023-08-06T14:56:42;16.28;75.54
69359;HTU21D;56520;49.066;8.660;2023-08-06T14:59:16;16.11;76.90
69359;HTU21D;56520;49.066;8.660;2023-08-06T15:01:41;16.02;78.02
69359;HTU21D;56520;49.066;8.660;2023-08-06T15:04:07;15.91;78.83
69359;HTU21D;56520;49.066;8.660;2023-08-06T15:06:32;15.93;79.41
69359;HTU21D;56520;49.066;8.660;2023-08-06T15:08:57;15.90;79.73
69359;HTU21D;56520;49.066;8.660;2023-08-06T15:11:26;15.81;80.51
69359;HTU21D;56520;49.066;8.660;2023-08-06T15:13:51;15.75;79.85
69359;HTU21D;56520;49.066;8.660;2023-08-06T15:16:17;15.75;80.62
69359;HTU21D;56520;49.066;8.660;2023-08-06T15:18:42;15.73;80.95